sensor_id;sensor_type;location;lat;lon;timestamp;P1;durP1;ratioP1;P2;durP2;ratioP2
71048;SDS011;58704;53.358;-6.238;2022-09-14T00:01:20;12.68;;;5.80;;
71048;SDS011;58704;53.358;-6.238;2022-09-14T00:03:46;14.75;;;5.70;;
71048;SDS011;58704;53.358;-6.238;2022-09-14T00:06:13;15.73;;;5.60;;
71048;SDS011;58704;53.358;-6.238;2022-09-14T00:08:40;11.13;;;5.45;;
71048;SDS011;58704;53.358;-6.238;2022-09-14T00:11:07;12.53;;;5.90;;
71048;SDS011;58704;53.358;-6.238;2022-09-14T00:13:34;13.57;;;5.50;;
71048;SDS011;58704;53.358;-6.238;2022-09-14T00:16:04;10.20;;;5.50;;
71048;SDS011;58704;53.358;-6.238;2022-09-14T00:18:31;12.38;;;6.07;;
71048;SDS011;58704;53.358;-6.238;2022-09-14T00:21:01;13.70;;;6.93;;
71048;SDS011;58704;53.358;-6.238;2022-09-14T00:23:27;14.87;;;7.90;;
71048;SDS011;58704;53.358;-6.238;2022-09-14T00:25:53;28.05;;;10.77;;
71048;SDS011;58704;53.358;-6.238;2022-09-14T00:28:18;25.27;;;11.23;;
71048;SDS011;58704;53.358;-6.238;2022-09-14T00:30:44;23.42;;;10.65;;
71048;SDS011;58704;53.358;-6.238;2022-09-14T00:33:09;20.37;;;8.60;;
71048;SDS011;58704;53.358;-6.238;2022-09-14T00:35:35;23.60;;;8.20;;
71048;SDS011;58704;53.358;-6.238;2022-09-14T00:38:00;16.50;;;6.50;;
71048;SDS011;58704;53.358;-6.238;2022-09-14T00:40:26;12.30;;;5.32;;
71048;SDS011;58704;53.358;-6.238;2022-09-14T00:42:51;12.90;;;5.00;;
71048;SDS011;58704;53.358;-6.238;2022-09-14T00:45:18;11.73;;;4.93;;
71048;SDS011;58704;53.358;-6.238;2022-09-14T00:47:46;9.65;;;4.22;;
71048;SDS011;58704;53.358;-6.238;2022-09-14T00:50:12;16.92;;;4.97;;
71048;SDS011;58704;53.358;-6.238;2022-09-14T00:52:39;9.43;;;4.20;;
71048;SDS011;58704;53.358;-6.238;2022-09-14T00:55:08;7.10;;;3.90;;
71048;SDS011;58704;53.358;-6.238;2022-09-14T00:57:36;10.55;;;4.10;;
71048;SDS011;58704;53.358;-6.238;2022-09-14T01:00:05;10.02;;;4.32;;
71048;SDS011;58704;53.358;-6.238;2022-09-14T01:02:33;13.52;;;4.80;;
71048;SDS011;58704;53.358;-6.238;2022-09-14T01:04:59;9.43;;;4.03;;
71048;SDS011;58704;53.358;-6.238;2022-09-14T01:10:33;9.18;;;4.30;;
71048;SDS011;58704;53.358;-6.238;2022-09-14T01:13:15;11.93;;;5.27;;
71048;SDS011;58704;53.358;-6.238;2022-09-14T01:16:24;22.40;;;8.40;;
71048;SDS011;58704;53.358;-6.238;2022-09-14T01:18:57;28.83;;;10.65;;
71048;SDS011;58704;53.358;-6.238;2022-09-14T01:21:28;25.38;;;10.15;;
71048;SDS011;58704;53.358;-6.238;2022-09-14T01:29:23;26.80;;;10.25;;
71048;SDS011;58704;53.358;-6.238;2022-09-14T01:32:04;20.90;;;9.80;;
71048;SDS011;58704;53.358;-6.238;2022-09-14T01:35:01;20.13;;;8.57;;
71048;SDS011;58704;53.358;-6.238;2022-09-14T01:37:53;28.58;;;11.23;;
71048;SDS011;58704;53.358;-6.238;2022-09-14T01:40:29;40.60;;;17.13;;
71048;SDS011;58704;53.358;-6.238;2022-09-14T01:43:00;52.10;;;20.10;;
71048;SDS011;58704;53.358;-6.238;2022-09-14T01:45:28;51.80;;;19.83;;
71048;SDS011;58704;53.358;-6.238;2022-09-14T01:48:01;54.22;;;18.58;;
71048;SDS011;58704;53.358;-6.238;2022-09-14T01:50:39;70.53;;;24.75;;
71048;SDS011;58704;53.358;-6.238;2022-09-14T01:53:08;62.63;;;25.70;;
71048;SDS011;58704;53.358;-6.238;2022-09-14T01:58:12;57.33;;;25.35;;
71048;SDS011;58704;53.358;-6.238;2022-09-14T02:00:43;58.85;;;25.65;;
71048;SDS011;58704;53.358;-6.238;2022-09-14T02:03:14;62.03;;;26.83;;
71048;SDS011;58704;53.358;-6.238;2022-09-14T02:05:56;48.73;;;21.30;;
71048;SDS011;58704;53.358;-6.238;2022-09-14T02:08:28;38.13;;;18.48;;
71048;SDS011;58704;53.358;-6.238;2022-09-14T02:10:54;34.03;;;15.13;;
71048;SDS011;58704;53.358;-6.238;2022-09-14T02:13:21;27.80;;;12.68;;
71048;SDS011;58704;53.358;-6.238;2022-09-14T02:15:46;24.03;;;11.47;;
71048;SDS011;58704;53.358;-6.238;2022-09-14T02:18:12;21.03;;;9.57;;
71048;SDS011;58704;53.358;-6.238;2022-09-14T02:20:57;22.95;;;8.80;;
71048;SDS011;58704;53.358;-6.238;2022-09-14T02:23:24;15.63;;;6.47;;
71048;SDS011;58704;53.358;-6.238;2022-09-14T02:25:50;14.82;;;6.70;;
71048;SDS011;58704;53.358;-6.238;2022-09-14T02:28:16;11.98;;;6.07;;
71048;SDS011;58704;53.358;-6.238;2022-09-14T02:31:03;14.03;;;4.80;;
71048;SDS011;58704;53.358;-6.238;2022-09-14T02:42:35;8.80;;;3.50;;
71048;SDS011;58704;53.358;-6.238;2022-09-14T02:45:21;9.10;;;4.40;;
71048;SDS011;58704;53.358;-6.238;2022-09-14T02:56:52;10.10;;;3.83;;
71048;SDS011;58704;53.358;-6.238;2022-09-14T02:59:18;12.77;;;3.95;;
71048;SDS011;58704;53.358;-6.238;2022-09-14T03:01:43;13.87;;;4.60;;
71048;SDS011;58704;53.358;-6.238;2022-09-14T03:04:08;9.47;;;3.77;;
71048;SDS011;58704;53.358;-6.238;2022-09-14T03:06:34;9.47;;;4.03;;
71048;SDS011;58704;53.358;-6.238;2022-09-14T03:09:00;11.65;;;3.80;;
71048;SDS011;58704;53.358;-6.238;2022-09-14T03:11:25;10.07;;;4.30;;
71048;SDS011;58704;53.358;-6.238;2022-09-14T03:13:51;12.17;;;4.67;;
71048;SDS011;58704;53.358;-6.238;2022-09-14T03:16:16;14.33;;;4.20;;
71048;SDS011;58704;53.358;-6.238;2022-09-14T03:18:42;14.38;;;3.90;;
71048;SDS011;58704;53.358;-6.238;2022-09-14T03:21:09;13.90;;;3.80;;
71048;SDS011;58704;53.358;-6.238;2022-09-14T03:23:39;9.90;;;3.53;;
71048;SDS011;58704;53.358;-6.238;2022-09-14T03:26:16;10.27;;;3.70;;
71048;SDS011;58704;53.358;-6.238;2022-09-14T03:28:43;9.93;;;3.78;;
71048;SDS011;58704;53.358;-6.238;2022-09-14T03:31:10;9.43;;;3.90;;
71048;SDS011;58704;53.358;-6.238;2022-09-14T03:33:36;10.40;;;3.75;;
71048;SDS011;58704;53.358;-6.238;2022-09-14T03:36:11;9.00;;;4.10;;
71048;SDS011;58704;53.358;-6.238;2022-09-14T03:38:41;13.18;;;4.18;;
71048;SDS011;58704;53.358;-6.238;2022-09-14T03:41:08;8.60;;;3.20;;
71048;SDS011;58704;53.358;-6.238;2022-09-14T03:43:33;10.17;;;3.90;;
71048;SDS011;58704;53.358;-6.238;2022-09-14T03:46:03;11.23;;;3.90;;
71048;SDS011;58704;53.358;-6.238;2022-09-14T03:48:30;9.07;;;3.28;;
71048;SDS011;58704;53.358;-6.238;2022-09-14T03:50:58;19.63;;;4.60;;
71048;SDS011;58704;53.358;-6.238;2022-09-14T03:53:24;12.50;;;3.75;;
71048;SDS011;58704;53.358;-6.238;2022-09-14T03:55:50;12.07;;;4.00;;
71048;SDS011;58704;53.358;-6.238;2022-09-14T03:58:15;9.70;;;3.67;;
71048;SDS011;58704;53.358;-6.238;2022-09-14T04:00:40;11.83;;;3.80;;
71048;SDS011;58704;53.358;-6.238;2022-09-14T04:03:06;10.50;;;3.80;;
71048;SDS011;58704;53.358;-6.238;2022-09-14T04:05:32;9.97;;;3.83;;
71048;SDS011;58704;53.358;-6.238;2022-09-14T04:07:57;11.00;;;3.67;;
71048;SDS011;58704;53.358;-6.238;2022-09-14T04:10:23;9.07;;;3.88;;
71048;SDS011;58704;53.358;-6.238;2022-09-14T04:12:48;9.97;;;4.30;;
71048;SDS011;58704;53.358;-6.238;2022-09-14T04:15:13;12.27;;;4.10;;
71048;SDS011;58704;53.358;-6.238;2022-09-14T04:17:39;12.40;;;3.50;;
71048;SDS011;58704;53.358;-6.238;2022-09-14T04:20:04;9.07;;;4.32;;
71048;SDS011;58704;53.358;-6.238;2022-09-14T04:22:30;10.20;;;3.90;;
71048;SDS011;58704;53.358;-6.238;2022-09-14T04:24:55;10.17;;;3.77;;
71048;SDS011;58704;53.358;-6.238;2022-09-14T04:27:21;9.68;;;3.65;;
71048;SDS011;58704;53.358;-6.238;2022-09-14T04:29:48;7.80;;;4.13;;
71048;SDS011;58704;53.358;-6.238;2022-09-14T04:32:14;10.50;;;3.95;;
71048;SDS011;58704;53.358;-6.238;2022-09-14T04:34:40;8.70;;;3.77;;
71048;SDS011;58704;53.358;-6.238;2022-09-14T04:37:05;10.80;;;3.80;;
71048;SDS011;58704;53.358;-6.238;2022-09-14T04:39:31;11.63;;;4.00;;
71048;SDS011;58704;53.358;-6.238;2022-09-14T04:41:56;12.17;;;4.57;;
71048;SDS011;58704;53.358;-6.238;2022-09-14T04:44:21;10.70;;;3.97;;
71048;SDS011;58704;53.358;-6.238;2022-09-14T04:46:47;12.80;;;4.03;;
71048;SDS011;58704;53.358;-6.238;2022-09-14T04:49:13;8.83;;;3.77;;
71048;SDS011;58704;53.358;-6.238;2022-09-14T04:51:40;12.50;;;3.58;;
71048;SDS011;58704;53.358;-6.238;2022-09-14T04:54:06;9.83;;;3.67;;
71048;SDS011;58704;53.358;-6.238;2022-09-14T04:56:33;8.33;;;3.73;;
71048;SDS011;58704;53.358;-6.238;2022-09-14T04:59:00;8.50;;;3.95;;
71048;SDS011;58704;53.358;-6.238;2022-09-14T05:01:29;10.18;;;3.70;;
71048;SDS011;58704;53.358;-6.238;2022-09-14T05:03:56;10.20;;;3.70;;
71048;SDS011;58704;53.358;-6.238;2022-09-14T05:06:23;8.82;;;3.88;;
71048;SDS011;58704;53.358;-6.238;2022-09-14T05:08:51;8.33;;;3.63;;
71048;SDS011;58704;53.358;-6.238;2022-09-14T05:11:18;5.30;;;3.00;;
71048;SDS011;58704;53.358;-6.238;2022-09-14T05:13:45;11.20;;;3.75;;
71048;SDS011;58704;53.358;-6.238;2022-09-14T05:16:16;6.32;;;3.60;;
71048;SDS011;58704;53.358;-6.238;2022-09-14T05:18:42;7.90;;;3.75;;
71048;SDS011;58704;53.358;-6.238;2022-09-14T05:21:09;9.17;;;4.13;;
71048;SDS011;58704;53.358;-6.238;2022-09-14T05:23:35;8.75;;;3.53;;
71048;SDS011;58704;53.358;-6.238;2022-09-14T05:26:01;8.40;;;3.80;;
71048;SDS011;58704;53.358;-6.238;2022-09-14T05:28:27;9.03;;;3.70;;
71048;SDS011;58704;53.358;-6.238;2022-09-14T05:30:53;4.85;;;3.55;;
71048;SDS011;58704;53.358;-6.238;2022-09-14T05:33:18;10.77;;;3.67;;
71048;SDS011;58704;53.358;-6.238;2022-09-14T05:35:44;6.45;;;4.78;;
71048;SDS011;58704;53.358;-6.238;2022-09-14T05:38:11;7.80;;;3.72;;
71048;SDS011;58704;53.358;-6.238;2022-09-14T05:40:36;7.23;;;3.03;;
71048;SDS011;58704;53.358;-6.238;2022-09-14T05:43:02;9.60;;;3.57;;
71048;SDS011;58704;53.358;-6.238;2022-09-14T05:45:27;10.53;;;3.67;;
71048;SDS011;58704;53.358;-6.238;2022-09-14T05:47:52;7.73;;;3.03;;
71048;SDS011;58704;53.358;-6.238;2022-09-14T05:50:18;6.00;;;3.77;;
71048;SDS011;58704;53.358;-6.238;2022-09-14T05:52:43;8.98;;;3.72;;
71048;SDS011;58704;53.358;-6.238;2022-09-14T05:55:09;5.60;;;3.43;;
71048;SDS011;58704;53.358;-6.238;2022-09-14T05:57:34;7.60;;;3.17;;
71048;SDS011;58704;53.358;-6.238;2022-09-14T06:00:00;9.67;;;4.33;;
71048;SDS011;58704;53.358;-6.238;2022-09-14T06:02:25;7.38;;;4.10;;
71048;SDS011;58704;53.358;-6.238;2022-09-14T06:04:50;6.83;;;3.60;;
71048;SDS011;58704;53.358;-6.238;2022-09-14T06:07:16;11.50;;;3.70;;
71048;SDS011;58704;53.358;-6.238;2022-09-14T06:09:41;5.77;;;3.50;;
71048;SDS011;58704;53.358;-6.238;2022-09-14T06:12:07;6.65;;;3.70;;
71048;SDS011;58704;53.358;-6.238;2022-09-14T06:14:32;7.83;;;4.00;;
71048;SDS011;58704;53.358;-6.238;2022-09-14T06:16:58;11.80;;;3.97;;
71048;SDS011;58704;53.358;-6.238;2022-09-14T06:19:24;9.18;;;3.58;;
71048;SDS011;58704;53.358;-6.238;2022-09-14T06:21:49;5.37;;;3.37;;
71048;SDS011;58704;53.358;-6.238;2022-09-14T06:24:14;5.63;;;3.90;;
71048;SDS011;58704;53.358;-6.238;2022-09-14T06:26:40;6.95;;;3.40;;
71048;SDS011;58704;53.358;-6.238;2022-09-14T06:29:05;9.50;;;3.60;;
71048;SDS011;58704;53.358;-6.238;2022-09-14T06:31:31;6.53;;;3.37;;
71048;SDS011;58704;53.358;-6.238;2022-09-14T06:33:56;4.27;;;3.10;;
71048;SDS011;58704;53.358;-6.238;2022-09-14T06:36:23;5.93;;;3.53;;
71048;SDS011;58704;53.358;-6.238;2022-09-14T06:38:49;10.10;;;3.60;;
71048;SDS011;58704;53.358;-6.238;2022-09-14T06:41:16;8.93;;;3.90;;
71048;SDS011;58704;53.358;-6.238;2022-09-14T06:43:43;5.57;;;3.92;;
71048;SDS011;58704;53.358;-6.238;2022-09-14T06:51:23;4.53;;;3.13;;
71048;SDS011;58704;53.358;-6.238;2022-09-14T06:53:55;6.45;;;3.65;;
71048;SDS011;58704;53.358;-6.238;2022-09-14T06:56:24;5.60;;;3.08;;
71048;SDS011;58704;53.358;-6.238;2022-09-14T06:58:50;7.22;;;3.92;;
71048;SDS011;58704;53.358;-6.238;2022-09-14T07:01:16;6.00;;;3.75;;
71048;SDS011;58704;53.358;-6.238;2022-09-14T07:03:43;6.97;;;3.57;;
71048;SDS011;58704;53.358;-6.238;2022-09-14T07:06:20;6.55;;;3.60;;
71048;SDS011;58704;53.358;-6.238;2022-09-14T07:08:50;4.78;;;3.28;;
71048;SDS011;58704;53.358;-6.238;2022-09-14T07:11:17;5.13;;;3.10;;
71048;SDS011;58704;53.358;-6.238;2022-09-14T07:13:45;6.13;;;3.22;;
71048;SDS011;58704;53.358;-6.238;2022-09-14T07:16:11;7.70;;;3.63;;
71048;SDS011;58704;53.358;-6.238;2022-09-14T07:18:37;6.75;;;3.20;;
71048;SDS011;58704;53.358;-6.238;2022-09-14T07:21:03;4.03;;;3.35;;
71048;SDS011;58704;53.358;-6.238;2022-09-14T07:23:30;6.95;;;2.90;;
71048;SDS011;58704;53.358;-6.238;2022-09-14T07:26:03;4.97;;;2.80;;
71048;SDS011;58704;53.358;-6.238;2022-09-14T07:28:31;5.32;;;2.85;;
71048;SDS011;58704;53.358;-6.238;2022-09-14T07:30:56;4.60;;;2.60;;
71048;SDS011;58704;53.358;-6.238;2022-09-14T07:33:22;4.57;;;2.50;;
71048;SDS011;58704;53.358;-6.238;2022-09-14T07:35:47;3.07;;;2.30;;
71048;SDS011;58704;53.358;-6.238;2022-09-14T07:38:13;3.77;;;2.43;;
71048;SDS011;58704;53.358;-6.238;2022-09-14T07:40:38;4.33;;;2.27;;
71048;SDS011;58704;53.358;-6.238;2022-09-14T07:43:03;2.85;;;2.10;;
71048;SDS011;58704;53.358;-6.238;2022-09-14T07:45:30;3.40;;;2.00;;
71048;SDS011;58704;53.358;-6.238;2022-09-14T07:47:56;4.93;;;1.85;;
71048;SDS011;58704;53.358;-6.238;2022-09-14T07:50:21;5.20;;;2.37;;
71048;SDS011;58704;53.358;-6.238;2022-09-14T07:52:49;1.80;;;1.50;;
71048;SDS011;58704;53.358;-6.238;2022-09-14T07:55:15;5.03;;;1.55;;
71048;SDS011;58704;53.358;-6.238;2022-09-14T07:57:42;3.75;;;1.58;;
71048;SDS011;58704;53.358;-6.238;2022-09-14T08:00:08;1.50;;;1.40;;
71048;SDS011;58704;53.358;-6.238;2022-09-14T08:02:35;2.53;;;1.57;;
71048;SDS011;58704;53.358;-6.238;2022-09-14T08:05:00;3.25;;;1.50;;
71048;SDS011;58704;53.358;-6.238;2022-09-14T08:07:26;1.50;;;1.20;;
71048;SDS011;58704;53.358;-6.238;2022-09-14T08:09:51;4.28;;;1.60;;
71048;SDS011;58704;53.358;-6.238;2022-09-14T08:12:17;2.70;;;1.33;;
71048;SDS011;58704;53.358;-6.238;2022-09-14T08:14:42;3.40;;;1.50;;
71048;SDS011;58704;53.358;-6.238;2022-09-14T08:17:08;2.77;;;1.43;;
71048;SDS011;58704;53.358;-6.238;2022-09-14T08:19:34;3.58;;;2.20;;
71048;SDS011;58704;53.358;-6.238;2022-09-14T08:22:01;3.22;;;1.70;;
71048;SDS011;58704;53.358;-6.238;2022-09-14T08:24:26;3.40;;;1.70;;
71048;SDS011;58704;53.358;-6.238;2022-09-14T08:26:52;1.83;;;1.60;;
71048;SDS011;58704;53.358;-6.238;2022-09-14T08:29:18;1.88;;;1.45;;
71048;SDS011;58704;53.358;-6.238;2022-09-14T08:31:44;1.75;;;1.65;;
71048;SDS011;58704;53.358;-6.238;2022-09-14T08:34:10;2.13;;;1.33;;
71048;SDS011;58704;53.358;-6.238;2022-09-14T08:36:37;3.47;;;1.60;;
71048;SDS011;58704;53.358;-6.238;2022-09-14T08:39:04;2.42;;;1.52;;
71048;SDS011;58704;53.358;-6.238;2022-09-14T08:46:39;1.75;;;1.40;;
71048;SDS011;58704;53.358;-6.238;2022-09-14T08:49:53;2.27;;;1.60;;
71048;SDS011;58704;53.358;-6.238;2022-09-14T08:52:08;1.55;;;1.38;;
71048;SDS011;58704;53.358;-6.238;2022-09-14T08:54:37;1.50;;;1.40;;
71048;SDS011;58704;53.358;-6.238;2022-09-14T08:57:15;1.40;;;1.30;;
71048;SDS011;58704;53.358;-6.238;2022-09-14T08:59:45;2.83;;;1.35;;
71048;SDS011;58704;53.358;-6.238;2022-09-14T09:04:54;1.30;;;1.20;;
71048;SDS011;58704;53.358;-6.238;2022-09-14T09:07:41;1.55;;;1.30;;
71048;SDS011;58704;53.358;-6.238;2022-09-14T09:10:09;2.17;;;1.30;;
71048;SDS011;58704;53.358;-6.238;2022-09-14T09:12:37;2.85;;;1.40;;
71048;SDS011;58704;53.358;-6.238;2022-09-14T09:15:16;1.60;;;1.45;;
71048;SDS011;58704;53.358;-6.238;2022-09-14T09:17:47;1.52;;;1.42;;
71048;SDS011;58704;53.358;-6.238;2022-09-14T09:20:26;1.83;;;1.30;;
71048;SDS011;58704;53.358;-6.238;2022-09-14T09:25:37;2.25;;;1.30;;
71048;SDS011;58704;53.358;-6.238;2022-09-14T09:28:11;1.90;;;1.40;;
71048;SDS011;58704;53.358;-6.238;2022-09-14T09:30:37;3.78;;;1.40;;
71048;SDS011;58704;53.358;-6.238;2022-09-14T09:33:04;2.80;;;1.40;;
71048;SDS011;58704;53.358;-6.238;2022-09-14T09:35:29;1.60;;;1.50;;
71048;SDS011;58704;53.358;-6.238;2022-09-14T09:37:55;1.70;;;1.50;;
71048;SDS011;58704;53.358;-6.238;2022-09-14T09:40:33;1.38;;;1.20;;
71048;SDS011;58704;53.358;-6.238;2022-09-14T09:43:13;1.20;;;1.10;;
71048;SDS011;58704;53.358;-6.238;2022-09-14T09:48:15;1.38;;;1.00;;
71048;SDS011;58704;53.358;-6.238;2022-09-14T09:50:50;1.10;;;1.00;;
71048;SDS011;58704;53.358;-6.238;2022-09-14T09:53:31;1.10;;;1.00;;
71048;SDS011;58704;53.358;-6.238;2022-09-14T09:55:58;1.30;;;1.20;;
71048;SDS011;58704;53.358;-6.238;2022-09-14T09:58:32;3.30;;;1.10;;
71048;SDS011;58704;53.358;-6.238;2022-09-14T10:01:16;6.00;;;1.20;;
71048;SDS011;58704;53.358;-6.238;2022-09-14T10:03:58;1.53;;;1.40;;
71048;SDS011;58704;53.358;-6.238;2022-09-14T10:06:45;1.50;;;1.40;;
71048;SDS011;58704;53.358;-6.238;2022-09-14T10:09:13;1.48;;;1.35;;
71048;SDS011;58704;53.358;-6.238;2022-09-14T10:11:40;1.50;;;1.40;;
71048;SDS011;58704;53.358;-6.238;2022-09-14T10:16:51;1.95;;;1.50;;
71048;SDS011;58704;53.358;-6.238;2022-09-14T10:19:19;1.73;;;1.42;;
71048;SDS011;58704;53.358;-6.238;2022-09-14T10:25:01;3.57;;;1.20;;
71048;SDS011;58704;53.358;-6.238;2022-09-14T10:30:01;0.80;;;0.80;;
71048;SDS011;58704;53.358;-6.238;2022-09-14T10:32:28;2.38;;;1.23;;
71048;SDS011;58704;53.358;-6.238;2022-09-14T10:34:55;1.60;;;1.50;;
71048;SDS011;58704;53.358;-6.238;2022-09-14T10:37:37;3.83;;;1.23;;
71048;SDS011;58704;53.358;-6.238;2022-09-14T10:40:15;1.20;;;1.10;;
71048;SDS011;58704;53.358;-6.238;2022-09-14T10:42:47;1.05;;;1.00;;
71048;SDS011;58704;53.358;-6.238;2022-09-14T10:45:32;2.55;;;1.02;;
71048;SDS011;58704;53.358;-6.238;2022-09-14T10:50:44;2.20;;;1.40;;
71048;SDS011;58704;53.358;-6.238;2022-09-14T10:53:31;2.65;;;1.27;;
71048;SDS011;58704;53.358;-6.238;2022-09-14T11:05:54;1.20;;;1.00;;
71048;SDS011;58704;53.358;-6.238;2022-09-14T11:19:15;2.50;;;1.47;;
71048;SDS011;58704;53.358;-6.238;2022-09-14T11:22:02;6.40;;;1.33;;
71048;SDS011;58704;53.358;-6.238;2022-09-14T11:27:03;2.78;;;1.58;;
71048;SDS011;58704;53.358;-6.238;2022-09-14T11:29:34;3.70;;;1.80;;
71048;SDS011;58704;53.358;-6.238;2022-09-14T11:32:04;9.90;;;2.20;;
71048;SDS011;58704;53.358;-6.238;2022-09-14T11:34:34;8.35;;;1.95;;
71048;SDS011;58704;53.358;-6.238;2022-09-14T11:37:10;8.30;;;1.70;;
71048;SDS011;58704;53.358;-6.238;2022-09-14T11:39:39;6.55;;;1.60;;
71048;SDS011;58704;53.358;-6.238;2022-09-14T11:42:21;2.60;;;1.63;;
71048;SDS011;58704;53.358;-6.238;2022-09-14T11:44:53;6.27;;;1.90;;
71048;SDS011;58704;53.358;-6.238;2022-09-14T11:47:23;3.13;;;1.42;;
71048;SDS011;58704;53.358;-6.238;2022-09-14T11:52:27;4.22;;;1.70;;
71048;SDS011;58704;53.358;-6.238;2022-09-14T11:54:55;5.38;;;2.10;;
71048;SDS011;58704;53.358;-6.238;2022-09-14T11:59:57;7.63;;;2.00;;
71048;SDS011;58704;53.358;-6.238;2022-09-14T12:05:50;9.65;;;2.53;;
71048;SDS011;58704;53.358;-6.238;2022-09-14T12:07:59;9.38;;;2.60;;
71048;SDS011;58704;53.358;-6.238;2022-09-14T12:10:26;7.22;;;2.20;;
71048;SDS011;58704;53.358;-6.238;2022-09-14T12:17:51;6.55;;;2.60;;
71048;SDS011;58704;53.358;-6.238;2022-09-14T12:20:35;5.53;;;2.30;;
71048;SDS011;58704;53.358;-6.238;2022-09-14T12:23:06;6.45;;;2.50;;
71048;SDS011;58704;53.358;-6.238;2022-09-14T12:25:37;5.95;;;2.40;;
71048;SDS011;58704;53.358;-6.238;2022-09-14T12:28:23;9.67;;;3.10;;
71048;SDS011;58704;53.358;-6.238;2022-09-14T12:41:01;9.73;;;2.70;;
71048;SDS011;58704;53.358;-6.238;2022-09-14T12:53:38;11.27;;;3.20;;
71048;SDS011;58704;53.358;-6.238;2022-09-14T12:56:05;8.63;;;2.92;;
71048;SDS011;58704;53.358;-6.238;2022-09-14T12:58:49;7.85;;;2.58;;
71048;SDS011;58704;53.358;-6.238;2022-09-14T13:04:01;9.02;;;3.05;;
71048;SDS011;58704;53.358;-6.238;2022-09-14T13:06:38;10.23;;;3.10;;
71048;SDS011;58704;53.358;-6.238;2022-09-14T13:09:14;9.00;;;2.78;;
71048;SDS011;58704;53.358;-6.238;2022-09-14T13:11:45;8.48;;;3.00;;
71048;SDS011;58704;53.358;-6.238;2022-09-14T13:14:16;7.22;;;2.63;;
71048;SDS011;58704;53.358;-6.238;2022-09-14T13:16:43;8.30;;;2.80;;
71048;SDS011;58704;53.358;-6.238;2022-09-14T13:21:48;8.90;;;3.08;;
71048;SDS011;58704;53.358;-6.238;2022-09-14T13:24:18;8.32;;;2.90;;
71048;SDS011;58704;53.358;-6.238;2022-09-14T13:26:59;10.77;;;2.60;;
71048;SDS011;58704;53.358;-6.238;2022-09-14T13:29:25;10.70;;;3.20;;
71048;SDS011;58704;53.358;-6.238;2022-09-14T13:31:52;6.93;;;2.57;;
71048;SDS011;58704;53.358;-6.238;2022-09-14T13:34:20;12.05;;;2.67;;
71048;SDS011;58704;53.358;-6.238;2022-09-14T13:36:47;9.00;;;2.80;;
71048;SDS011;58704;53.358;-6.238;2022-09-14T13:39:27;9.27;;;2.70;;
71048;SDS011;58704;53.358;-6.238;2022-09-14T13:41:54;11.05;;;2.90;;
71048;SDS011;58704;53.358;-6.238;2022-09-14T13:44:22;8.43;;;3.13;;
71048;SDS011;58704;53.358;-6.238;2022-09-14T13:46:59;9.70;;;2.58;;
71048;SDS011;58704;53.358;-6.238;2022-09-14T13:49:26;8.80;;;2.92;;
71048;SDS011;58704;53.358;-6.238;2022-09-14T13:52:05;10.17;;;2.80;;
71048;SDS011;58704;53.358;-6.238;2022-09-14T13:54:51;8.70;;;2.55;;
71048;SDS011;58704;53.358;-6.238;2022-09-14T13:57:31;7.05;;;2.92;;
71048;SDS011;58704;53.358;-6.238;2022-09-14T14:02:41;5.75;;;2.90;;
71048;SDS011;58704;53.358;-6.238;2022-09-14T14:07:51;10.75;;;2.85;;
71048;SDS011;58704;53.358;-6.238;2022-09-14T14:10:29;8.50;;;2.50;;
71048;SDS011;58704;53.358;-6.238;2022-09-14T14:12:57;6.90;;;2.25;;
71048;SDS011;58704;53.358;-6.238;2022-09-14T14:17:49;10.90;;;2.33;;
71048;SDS011;58704;53.358;-6.238;2022-09-14T14:20:29;12.55;;;2.72;;
71048;SDS011;58704;53.358;-6.238;2022-09-14T14:22:58;12.20;;;3.03;;
71048;SDS011;58704;53.358;-6.238;2022-09-14T14:25:30;11.27;;;3.33;;
71048;SDS011;58704;53.358;-6.238;2022-09-14T14:28:26;10.73;;;2.77;;
71048;SDS011;58704;53.358;-6.238;2022-09-14T14:30:53;9.43;;;2.70;;
71048;SDS011;58704;53.358;-6.238;2022-09-14T14:33:21;8.90;;;2.50;;
71048;SDS011;58704;53.358;-6.238;2022-09-14T14:35:47;9.27;;;2.92;;
71048;SDS011;58704;53.358;-6.238;2022-09-14T14:38:16;7.65;;;2.60;;
71048;SDS011;58704;53.358;-6.238;2022-09-14T14:40:42;8.53;;;2.90;;
71048;SDS011;58704;53.358;-6.238;2022-09-14T14:43:10;8.30;;;2.67;;
71048;SDS011;58704;53.358;-6.238;2022-09-14T14:45:43;7.03;;;2.60;;
71048;SDS011;58704;53.358;-6.238;2022-09-14T14:48:09;7.28;;;2.10;;
71048;SDS011;58704;53.358;-6.238;2022-09-14T14:50:36;5.73;;;2.30;;
71048;SDS011;58704;53.358;-6.238;2022-09-14T14:53:02;8.20;;;2.60;;
71048;SDS011;58704;53.358;-6.238;2022-09-14T14:55:28;8.52;;;2.45;;
71048;SDS011;58704;53.358;-6.238;2022-09-14T14:57:57;6.75;;;2.53;;
71048;SDS011;58704;53.358;-6.238;2022-09-14T15:00:25;11.05;;;2.40;;
71048;SDS011;58704;53.358;-6.238;2022-09-14T15:02:51;10.90;;;2.47;;
71048;SDS011;58704;53.358;-6.238;2022-09-14T15:05:16;7.85;;;2.00;;
71048;SDS011;58704;53.358;-6.238;2022-09-14T15:07:42;8.20;;;2.50;;
71048;SDS011;58704;53.358;-6.238;2022-09-14T15:10:09;7.23;;;2.40;;
71048;SDS011;58704;53.358;-6.238;2022-09-14T15:12:37;8.20;;;2.85;;
71048;SDS011;58704;53.358;-6.238;2022-09-14T15:15:03;5.47;;;2.20;;
71048;SDS011;58704;53.358;-6.238;2022-09-14T15:17:29;5.53;;;2.22;;
71048;SDS011;58704;53.358;-6.238;2022-09-14T15:19:57;5.68;;;3.17;;
71048;SDS011;58704;53.358;-6.238;2022-09-14T15:22:23;6.90;;;2.53;;
71048;SDS011;58704;53.358;-6.238;2022-09-14T15:24:51;10.68;;;2.33;;
71048;SDS011;58704;53.358;-6.238;2022-09-14T15:27:17;5.33;;;2.07;;
71048;SDS011;58704;53.358;-6.238;2022-09-14T15:29:42;6.30;;;2.25;;
71048;SDS011;58704;53.358;-6.238;2022-09-14T15:32:10;8.90;;;2.50;;
71048;SDS011;58704;53.358;-6.238;2022-09-14T15:34:38;7.05;;;2.28;;
71048;SDS011;58704;53.358;-6.238;2022-09-14T15:37:05;8.30;;;2.50;;
71048;SDS011;58704;53.358;-6.238;2022-09-14T15:39:30;9.57;;;2.42;;
71048;SDS011;58704;53.358;-6.238;2022-09-14T15:41:56;9.50;;;2.53;;
71048;SDS011;58704;53.358;-6.238;2022-09-14T15:44:22;9.65;;;2.67;;
71048;SDS011;58704;53.358;-6.238;2022-09-14T15:46:48;9.07;;;2.60;;
71048;SDS011;58704;53.358;-6.238;2022-09-14T15:49:15;7.32;;;3.03;;
71048;SDS011;58704;53.358;-6.238;2022-09-14T15:51:43;10.67;;;2.60;;
71048;SDS011;58704;53.358;-6.238;2022-09-14T15:54:09;11.32;;;3.03;;
71048;SDS011;58704;53.358;-6.238;2022-09-14T15:56:36;7.53;;;2.90;;
71048;SDS011;58704;53.358;-6.238;2022-09-14T15:59:02;12.18;;;2.92;;
71048;SDS011;58704;53.358;-6.238;2022-09-14T16:01:31;8.70;;;2.67;;
71048;SDS011;58704;53.358;-6.238;2022-09-14T16:04:12;8.27;;;2.90;;
71048;SDS011;58704;53.358;-6.238;2022-09-14T16:06:40;16.90;;;2.60;;
71048;SDS011;58704;53.358;-6.238;2022-09-14T16:09:07;6.97;;;2.30;;
71048;SDS011;58704;53.358;-6.238;2022-09-14T16:11:34;8.18;;;2.67;;
71048;SDS011;58704;53.358;-6.238;2022-09-14T16:14:01;8.10;;;2.67;;
71048;SDS011;58704;53.358;-6.238;2022-09-14T16:16:26;9.27;;;2.50;;
71048;SDS011;58704;53.358;-6.238;2022-09-14T16:18:53;9.27;;;2.88;;
71048;SDS011;58704;53.358;-6.238;2022-09-14T16:21:20;10.27;;;2.58;;
71048;SDS011;58704;53.358;-6.238;2022-09-14T16:23:53;8.30;;;2.50;;
71048;SDS011;58704;53.358;-6.238;2022-09-14T16:26:21;9.52;;;2.72;;
71048;SDS011;58704;53.358;-6.238;2022-09-14T16:28:48;10.75;;;3.00;;
71048;SDS011;58704;53.358;-6.238;2022-09-14T16:31:15;8.90;;;2.95;;
71048;SDS011;58704;53.358;-6.238;2022-09-14T16:33:44;8.73;;;2.55;;
71048;SDS011;58704;53.358;-6.238;2022-09-14T16:36:12;6.23;;;2.63;;
71048;SDS011;58704;53.358;-6.238;2022-09-14T16:38:41;9.38;;;2.90;;
71048;SDS011;58704;53.358;-6.238;2022-09-14T16:41:08;6.95;;;2.83;;
71048;SDS011;58704;53.358;-6.238;2022-09-14T16:43:34;9.10;;;2.50;;
71048;SDS011;58704;53.358;-6.238;2022-09-14T16:46:01;8.40;;;2.20;;
71048;SDS011;58704;53.358;-6.238;2022-09-14T16:48:29;6.47;;;2.55;;